Airfield :
LOGIN :

Register | Disclaimer

   EN    FR    IT 

 










Legend :    VFR   Marginal VFR   IFR   Intensive IFR   Very Intensive IFR
Visi :
Ceiling :
>= 8 km
>= 3000ft
5 to 8 km
1000 to 3000 ft
1500m to 5 km
500 to 1000 ft
800 to 1500m
200 to 500 ft
< 800m
< 200 ft
Symbols :   Thunderstorms  Fog  Heavy snow  Heavy precipitations  Wind > 20 kt
SIGMETs :     Misc.  Thunderstorms  Icing  Turbulence  Mountain Waves  Volcanic Ashes






- Airport Elevation : 2302 ft


LEAB - Albacete

CURRENT METAR :
  • 041130Z VRB03KT CAVOK 31/11 Q1020 NOSIG

EXPIRED METARs :
  • 041100Z 26006KT 220V340 CAVOK 30/11 Q1020 NOSIG
  • 041030Z VRB05KT CAVOK 30/13 Q1020 NOSIG
  • 041000Z 01005KT 300V060 CAVOK 29/13 Q1021 NOSIG
  • 040930Z 33005KT 280V350 CAVOK 28/12 Q1021 NOSIG
  • 040900Z 33004KT 290V020 CAVOK 27/12 Q1021 NOSIG

TAF TAF LEAB
Valid from the 04 at 12:00 until the 05 at 12:00 UTC


041100Z 0412/0512 24010KT CAVOK TX37/0415Z TN19/0505Z
PROB30
TEMPO 0415/0420 VRB15G30KT TS SCT040CB
BECMG 0500/0502 VRB04KT
BECMG 0510/0512 18010KT



MET'MAP, your aeronautical weather chart ! - Copyright ORBIFLY December 2007 - Disclaimer

ORBIFLY MET'MAP TEAM :

Programming & Development : Alexandra Zaïnal
Original concept : Baudouin d'Aumeries
Technical & hardware support : Manuel Goepfert
Assistance : Marc-Olivier Méhu




SOURCES & CREDITS :

   NOAA